createdAt,value
2023-01-10T18:01:25.475Z,5.27
2023-01-10T18:03:52.864Z,7.13
2023-01-10T18:06:25.082Z,9.13
2023-01-10T18:08:52.883Z,9.40
2023-01-10T18:11:19.589Z,5.27
2023-01-10T18:13:46.318Z,5.13
2023-01-10T18:16:12.907Z,8.90
2023-01-10T18:18:39.573Z,5.30
2023-01-10T18:21:16.548Z,8.50
2023-01-10T18:23:43.290Z,6.70
2023-01-10T18:26:12.654Z,6.50
2023-01-10T18:28:42.712Z,3.40
2023-01-10T18:31:19.716Z,5.20
2023-01-10T18:33:47.673Z,3.60
2023-01-10T18:36:19.806Z,3.57
2023-01-10T18:38:47.710Z,3.50
2023-01-10T18:41:15.701Z,3.10
2023-01-10T18:43:42.401Z,2.40
2023-01-10T18:46:15.216Z,1.90
2023-01-10T18:48:41.811Z,2.77
2023-01-10T18:51:09.972Z,3.90
2023-01-10T18:53:38.191Z,2.20
2023-01-10T18:56:05.896Z,2.70
2023-01-10T18:58:35.855Z,2.40
2023-01-10T19:01:17.952Z,2.90
2023-01-10T19:03:46.652Z,2.53
2023-01-10T19:06:16.414Z,2.73
2023-01-10T19:08:44.674Z,2.40
2023-01-10T19:11:16.403Z,2.40
2023-01-10T19:13:45.121Z,2.27
2023-01-10T19:16:17.166Z,2.83
2023-01-10T19:18:47.876Z,2.30
2023-01-10T19:21:16.196Z,3.00
2023-01-10T19:23:48.504Z,2.50
2023-01-10T19:26:15.591Z,2.53
2023-01-10T19:28:43.929Z,1.83
2023-01-10T19:31:18.618Z,2.13
2023-01-10T19:33:47.482Z,1.90
2023-01-10T19:36:16.783Z,2.03
2023-01-10T19:38:44.196Z,2.00
2023-01-10T19:41:11.439Z,2.13
2023-01-10T19:43:38.060Z,1.90
2023-01-10T19:46:11.791Z,1.37
2023-01-10T19:48:39.095Z,2.00
2023-01-10T19:51:06.793Z,2.13
2023-01-10T19:53:37.846Z,2.40
2023-01-10T19:56:09.514Z,2.30
2023-01-10T19:58:37.788Z,1.93
2023-01-10T20:01:13.549Z,1.60
2023-01-10T20:03:42.153Z,1.60
2023-01-10T20:06:14.236Z,1.50
2023-01-10T20:08:41.518Z,1.60
2023-01-10T20:11:08.779Z,1.60
2023-01-10T20:13:41.966Z,1.70
2023-01-10T20:16:08.983Z,1.73
2023-01-10T20:18:35.945Z,2.10
2023-01-10T20:21:07.607Z,2.10
2023-01-10T20:23:35.401Z,2.23
2023-01-10T20:26:06.570Z,1.90
2023-01-10T20:28:34.455Z,1.70
2023-01-10T20:31:01.309Z,1.30
2023-01-10T20:33:28.707Z,1.43
2023-01-10T20:36:04.150Z,1.40
2023-01-10T20:38:32.930Z,1.67
2023-01-10T20:41:11.908Z,2.17
2023-01-10T20:43:39.212Z,2.70
2023-01-10T20:46:08.541Z,1.67
2023-01-10T20:48:35.263Z,1.80
2023-01-10T20:51:02.340Z,1.80
2023-01-10T20:53:29.039Z,1.70
2023-01-10T20:56:00.057Z,1.90
2023-01-10T20:58:26.985Z,1.60
2023-01-10T21:00:54.081Z,1.60
2023-01-10T21:03:23.587Z,1.50
2023-01-10T21:05:54.451Z,1.20
2023-01-10T21:08:22.313Z,1.30
2023-01-10T21:10:50.244Z,1.43
2023-01-10T21:13:17.584Z,1.37
2023-01-10T21:15:46.441Z,1.50
2023-01-10T21:18:15.569Z,1.20
2023-01-10T21:20:43.723Z,1.40
2023-01-10T21:23:10.607Z,2.10
2023-01-10T21:25:37.376Z,1.57
2023-01-10T21:28:09.397Z,1.20
2023-01-10T21:30:37.444Z,1.17
2023-01-10T21:33:04.807Z,1.00
2023-01-10T21:35:32.560Z,1.40
2023-01-10T21:37:59.293Z,1.20
2023-01-10T21:40:27.197Z,1.33
2023-01-10T21:42:54.370Z,1.50
2023-01-10T21:45:21.947Z,1.40
2023-01-10T21:47:48.945Z,1.60
2023-01-10T21:50:16.823Z,1.20
2023-01-10T21:52:43.901Z,1.40
2023-01-10T21:55:13.715Z,1.07
2023-01-10T21:57:40.391Z,1.03
2023-01-10T22:00:08.033Z,1.23
